Time;durP1;ratioP1;P1;durP2;ratioP2;P2;SDS_P1;SDS_P2;PMS_P1;PMS_P2;Temp;Humidity;BMP_temperature;BMP_pressure;BME280_temperature;BME280_humidity;BME280_pressure;Samples;Min_cycle;Max_cycle;Signal;HPM_P1;HPM_P2
2021/09/26 00:01:59;;;;;;;22.05;9.48;;;;;;;;;;8258212;28;20472;-72
2021/09/26 00:06:05;;;;;;;18.38;8.65;;;;;;;;;;8210744;28;20369;-72
2021/09/26 00:10:12;;;;;;;16.77;8.57;;;;;;;;;;8191940;28;20496;-72
2021/09/26 00:14:18;;;;;;;15.48;8.70;;;;;;;;;;8192968;28;20350;-72
2021/09/26 00:18:23;;;;;;;19.40;8.73;;;;;;;;;;8198720;28;20353;-72
2021/09/26 00:22:29;;;;;;;13.88;8.45;;;;;;;;;;8200169;28;20104;-73
2021/09/26 00:26:33;;;;;;;21.35;9.63;;;;;;;;;;8196881;28;20057;-72
2021/09/26 00:30:38;;;;;;;21.73;9.40;;;;;;;;;;8197862;28;20453;-73
2021/09/26 00:34:43;;;;;;;19.95;8.98;;;;;;;;;;8198548;28;20493;-73
2021/09/26 00:38:48;;;;;;;19.73;9.32;;;;;;;;;;8196955;28;20408;-72
2021/09/26 00:42:53;;;;;;;22.42;9.68;;;;;;;;;;8198385;28;20376;-72
2021/09/26 00:46:59;;;;;;;17.77;8.75;;;;;;;;;;8198154;28;20457;-72
2021/09/26 00:51:10;;;;;;;28.48;9.98;;;;;;;;;;8198387;28;20335;-72
2021/09/26 00:55:16;;;;;;;21.13;9.40;;;;;;;;;;8199833;28;20358;-72
2021/09/26 00:59:22;;;;;;;22.88;10.25;;;;;;;;;;8197184;28;20388;-72
2021/09/26 01:03:27;;;;;;;22.35;9.65;;;;;;;;;;8197446;28;20377;-72
2021/09/26 01:07:39;;;;;;;23.95;10.60;;;;;;;;;;8197796;28;20473;-72
2021/09/26 01:12:37;;;;;;;17.85;9.27;;;;;;;;;;8196982;28;20073;-72
2021/09/26 01:17:08;;;;;;;19.52;9.10;;;;;;;;;;8197108;28;20476;-73
2021/09/26 01:21:30;;;;;;;21.08;10.20;;;;;;;;;;8197708;28;20453;-73
2021/09/26 01:26:31;;;;;;;19.70;9.43;;;;;;;;;;8197323;28;20392;-73
2021/09/26 01:30:45;;;;;;;15.93;8.95;;;;;;;;;;8196925;28;20461;-73
2021/09/26 01:34:56;;;;;;;17.77;9.05;;;;;;;;;;8198422;28;20064;-72
2021/09/26 01:39:18;;;;;;;18.60;9.52;;;;;;;;;;8200446;28;20457;-73
2021/09/26 01:43:40;;;;;;;16.55;9.60;;;;;;;;;;8211829;28;20450;-73
2021/09/26 01:48:12;;;;;;;17.80;9.10;;;;;;;;;;8202420;28;20556;-73
2021/09/26 01:52:25;;;;;;;18.63;8.80;;;;;;;;;;8197849;28;20054;-72
2021/09/26 01:56:32;;;;;;;17.75;9.65;;;;;;;;;;8195039;28;20358;-72
2021/09/26 02:00:39;;;;;;;19.23;9.88;;;;;;;;;;8195034;28;20469;-72
2021/09/26 02:04:50;;;;;;;24.67;10.13;;;;;;;;;;8195817;28;20064;-73
2021/09/26 02:08:56;;;;;;;20.05;10.18;;;;;;;;;;8194165;28;20481;-73
2021/09/26 02:13:03;;;;;;;23.98;10.05;;;;;;;;;;8197072;28;20468;-73
2021/09/26 02:17:10;;;;;;;19.63;9.77;;;;;;;;;;8195297;28;20392;-73
2021/09/26 02:21:16;;;;;;;25.23;10.17;;;;;;;;;;8195933;28;20465;-74
2021/09/26 02:25:22;;;;;;;20.23;10.30;;;;;;;;;;8200297;28;20365;-72
2021/09/26 02:29:27;;;;;;;15.80;9.52;;;;;;;;;;8209897;28;20373;-72
2021/09/26 02:33:34;;;;;;;16.35;9.43;;;;;;;;;;8196496;28;20373;-72
2021/09/26 02:37:40;;;;;;;17.00;8.80;;;;;;;;;;8194749;28;20393;-72
2021/09/26 02:41:56;;;;;;;17.00;8.77;;;;;;;;;;8196496;28;20042;-72
2021/09/26 02:46:18;;;;;;;17.40;9.20;;;;;;;;;;8193067;28;20353;-72
2021/09/26 02:50:24;;;;;;;16.98;9.10;;;;;;;;;;8201847;28;20369;-73
2021/09/26 02:54:38;;;;;;;15.32;9.98;;;;;;;;;;8194867;28;20361;-72
2021/09/26 02:58:43;;;;;;;16.67;8.23;;;;;;;;;;8198709;28;20050;-72
2021/09/26 03:02:48;;;;;;;23.30;9.05;;;;;;;;;;8192941;28;20465;-73
2021/09/26 03:06:55;;;;;;;15.57;9.38;;;;;;;;;;8193681;28;20499;-73
2021/09/26 03:11:02;;;;;;;15.45;9.02;;;;;;;;;;8195847;28;20400;-73
2021/09/26 03:15:07;;;;;;;18.83;8.82;;;;;;;;;;8197483;28;20565;-72
2021/09/26 03:19:12;;;;;;;16.80;8.82;;;;;;;;;;8211408;28;20491;-73
2021/09/26 03:23:18;;;;;;;17.48;8.82;;;;;;;;;;8195538;28;20454;-73
2021/09/26 03:27:23;;;;;;;20.58;9.60;;;;;;;;;;8176999;28;20354;-74
2021/09/26 03:31:28;;;;;;;23.75;9.45;;;;;;;;;;8192591;28;20050;-72
2021/09/26 03:35:35;;;;;;;19.50;9.05;;;;;;;;;;8191565;28;20331;-72
2021/09/26 03:39:41;;;;;;;18.38;9.38;;;;;;;;;;8198980;28;20458;-73
2021/09/26 03:43:47;;;;;;;26.92;9.13;;;;;;;;;;8198367;28;20465;-73
2021/09/26 03:47:52;;;;;;;19.92;9.52;;;;;;;;;;8193816;28;20389;-73
2021/09/26 03:51:57;;;;;;;18.45;9.15;;;;;;;;;;8194950;28;20469;-74
2021/09/26 03:56:02;;;;;;;20.35;9.07;;;;;;;;;;8191921;28;20469;-74
2021/09/26 04:00:12;;;;;;;14.82;8.18;;;;;;;;;;8194190;28;20405;-73
2021/09/26 04:04:19;;;;;;;18.92;8.30;;;;;;;;;;8191920;28;20511;-73
2021/09/26 04:08:24;;;;;;;13.18;8.10;;;;;;;;;;8191566;28;20378;-73
2021/09/26 04:12:29;;;;;;;12.55;7.25;;;;;;;;;;8193838;28;20034;-74
2021/09/26 04:16:34;;;;;;;15.65;8.38;;;;;;;;;;8193884;28;20360;-73
2021/09/26 04:20:40;;;;;;;14.20;7.72;;;;;;;;;;8192400;28;20345;-73
2021/09/26 04:24:45;;;;;;;14.35;8.32;;;;;;;;;;8206559;28;20076;-73
2021/09/26 04:28:50;;;;;;;15.15;8.30;;;;;;;;;;8192578;28;20089;-73
2021/09/26 04:32:55;;;;;;;18.40;7.55;;;;;;;;;;8190396;28;20465;-73
2021/09/26 04:37:02;;;;;;;16.67;8.00;;;;;;;;;;8192129;28;20346;-73
2021/09/26 04:41:07;;;;;;;14.55;7.90;;;;;;;;;;8195573;28;20053;-73
2021/09/26 04:45:12;;;;;;;20.60;7.93;;;;;;;;;;8193734;28;20465;-74
2021/09/26 04:49:18;;;;;;;13.57;7.22;;;;;;;;;;8191478;28;20072;-73
2021/09/26 04:53:23;;;;;;;11.80;6.75;;;;;;;;;;8194864;28;20353;-74
2021/09/26 04:57:28;;;;;;;15.27;7.13;;;;;;;;;;8195456;28;20491;-73
2021/09/26 05:01:34;;;;;;;14.57;7.38;;;;;;;;;;8191861;28;20375;-74
2021/09/26 05:05:40;;;;;;;13.70;6.72;;;;;;;;;;8198008;28;20076;-74
2021/09/26 05:09:45;;;;;;;16.92;7.05;;;;;;;;;;8197158;28;20357;-73
2021/09/26 05:13:50;;;;;;;18.52;8.05;;;;;;;;;;8196351;28;20488;-73
2021/09/26 05:17:56;;;;;;;14.52;7.55;;;;;;;;;;8197672;28;20473;-73
2021/09/26 05:22:01;;;;;;;14.45;7.25;;;;;;;;;;8200994;28;20484;-73
2021/09/26 05:26:08;;;;;;;13.10;7.38;;;;;;;;;;8197517;28;20492;-73
2021/09/26 05:30:14;;;;;;;9.65;6.75;;;;;;;;;;8195854;28;20417;-74
2021/09/26 05:34:20;;;;;;;11.88;6.78;;;;;;;;;;8197492;28;20370;-74
2021/09/26 05:38:25;;;;;;;10.18;6.60;;;;;;;;;;8198499;28;20369;-73
2021/09/26 05:42:30;;;;;;;12.88;7.65;;;;;;;;;;8196598;28;20346;-74
2021/09/26 05:46:36;;;;;;;11.23;6.78;;;;;;;;;;8196561;28;20362;-73
2021/09/26 05:50:41;;;;;;;15.05;7.57;;;;;;;;;;8195958;28;20358;-73
2021/09/26 05:54:46;;;;;;;12.15;6.72;;;;;;;;;;8212511;28;20473;-73
2021/09/26 05:58:52;;;;;;;12.13;7.65;;;;;;;;;;8194092;28;20481;-73
2021/09/26 06:02:58;;;;;;;12.85;7.60;;;;;;;;;;8196211;28;20481;-73
2021/09/26 06:07:04;;;;;;;15.70;7.22;;;;;;;;;;8195420;28;20456;-74
2021/09/26 06:11:09;;;;;;;14.38;9.48;;;;;;;;;;8195251;28;20491;-73
2021/09/26 06:15:15;;;;;;;60.38;27.27;;;;;;;;;;8196528;28;20457;-73
2021/09/26 06:19:20;;;;;;;65.05;25.33;;;;;;;;;;8193791;28;20064;-74
2021/09/26 06:23:25;;;;;;;18.20;7.93;;;;;;;;;;8195852;28;20377;-73
2021/09/26 06:27:30;;;;;;;19.55;10.70;;;;;;;;;;8195233;28;20500;-73
2021/09/26 06:31:35;;;;;;;20.08;10.80;;;;;;;;;;8194425;28;20081;-73
2021/09/26 06:35:40;;;;;;;18.65;9.18;;;;;;;;;;8194221;28;20495;-73
2021/09/26 06:39:45;;;;;;;17.27;8.98;;;;;;;;;;8193392;28;20388;-73
2021/09/26 06:43:51;;;;;;;14.90;8.98;;;;;;;;;;8192480;28;20038;-72
2021/09/26 06:47:56;;;;;;;17.50;8.40;;;;;;;;;;8199350;28;20373;-72
2021/09/26 06:52:01;;;;;;;16.42;9.40;;;;;;;;;;8209166;28;20072;-72
2021/09/26 06:56:07;;;;;;;16.60;9.23;;;;;;;;;;8194800;28;20072;-73
2021/09/26 07:00:12;;;;;;;15.85;9.45;;;;;;;;;;8191990;28;20355;-73
2021/09/26 07:04:18;;;;;;;17.20;8.18;;;;;;;;;;8191735;28;20045;-73
2021/09/26 07:08:24;;;;;;;17.23;8.20;;;;;;;;;;8194131;28;20077;-73
2021/09/26 07:12:29;;;;;;;12.43;8.02;;;;;;;;;;8192448;28;20372;-73
2021/09/26 07:16:34;;;;;;;17.05;7.15;;;;;;;;;;8194274;28;20457;-73
2021/09/26 07:20:39;;;;;;;13.57;7.90;;;;;;;;;;8192818;28;20050;-73
2021/09/26 07:24:44;;;;;;;11.70;6.45;;;;;;;;;;8193205;28;20377;-73
2021/09/26 07:28:50;;;;;;;19.70;6.65;;;;;;;;;;8193200;28;20372;-74
2021/09/26 07:32:55;;;;;;;14.82;6.10;;;;;;;;;;8194377;28;20453;-74
2021/09/26 07:37:00;;;;;;;13.98;5.95;;;;;;;;;;8193305;28;20487;-73
2021/09/26 07:41:05;;;;;;;9.07;5.72;;;;;;;;;;8194350;28;20457;-73
2021/09/26 07:45:13;;;;;;;10.20;5.75;;;;;;;;;;8192600;28;20512;-73
2021/09/26 07:49:18;;;;;;;6.63;4.60;;;;;;;;;;8193764;28;20457;-74
2021/09/26 07:53:23;;;;;;;9.15;5.25;;;;;;;;;;8192315;28;20385;-73
2021/09/26 07:57:28;;;;;;;9.25;4.78;;;;;;;;;;8192502;28;20362;-74
2021/09/26 08:01:34;;;;;;;7.68;4.05;;;;;;;;;;8192381;28;20046;-73
2021/09/26 08:05:39;;;;;;;8.27;3.90;;;;;;;;;;8192551;28;20487;-74
2021/09/26 08:09:44;;;;;;;9.65;3.85;;;;;;;;;;8190935;28;20493;-73
2021/09/26 08:13:49;;;;;;;7.32;3.70;;;;;;;;;;8207042;28;20485;-74
2021/09/26 08:17:54;;;;;;;7.80;3.80;;;;;;;;;;8192346;28;20487;-75
2021/09/26 08:21:59;;;;;;;6.93;3.03;;;;;;;;;;8206929;28;20457;-74
2021/09/26 08:26:04;;;;;;;7.07;3.38;;;;;;;;;;8192551;28;20472;-75
2021/09/26 08:30:11;;;;;;;4.60;2.92;;;;;;;;;;8193917;28;20041;-75
2021/09/26 08:34:16;;;;;;;5.80;3.40;;;;;;;;;;8191222;28;20484;-73
2021/09/26 08:38:21;;;;;;;4.38;3.00;;;;;;;;;;8197789;28;20341;-74
2021/09/26 08:42:26;;;;;;;3.95;2.67;;;;;;;;;;8196312;28;20038;-75
2021/09/26 08:46:32;;;;;;;4.82;2.63;;;;;;;;;;8196487;28;20463;-76
2021/09/26 08:50:38;;;;;;;5.22;2.88;;;;;;;;;;8198370;28;20497;-74
2021/09/26 08:54:44;;;;;;;6.10;2.97;;;;;;;;;;8198507;28;20361;-75
2021/09/26 08:58:52;;;;;;;5.45;3.05;;;;;;;;;;8197546;28;20500;-74
2021/09/26 09:02:58;;;;;;;3.92;2.60;;;;;;;;;;8199254;28;20046;-75
2021/09/26 09:07:06;;;;;;;6.30;2.50;;;;;;;;;;8198148;28;20507;-75
2021/09/26 09:11:20;;;;;;;5.05;2.63;;;;;;;;;;8196813;28;20351;-73
2021/09/26 09:15:26;;;;;;;5.22;2.60;;;;;;;;;;8199097;28;20046;-75
2021/09/26 09:19:33;;;;;;;3.22;2.15;;;;;;;;;;8197431;28;20488;-75
2021/09/26 09:23:38;;;;;;;2.27;1.80;;;;;;;;;;8198627;28;20409;-74
2021/09/26 09:27:43;;;;;;;3.72;2.15;;;;;;;;;;8197018;28;20458;-74
2021/09/26 09:31:52;;;;;;;6.07;2.03;;;;;;;;;;8197638;28;20053;-74
2021/09/26 09:35:57;;;;;;;3.42;2.00;;;;;;;;;;8195125;28;20369;-74
2021/09/26 09:40:15;;;;;;;2.58;1.77;;;;;;;;;;8194842;28;20358;-74
2021/09/26 09:44:37;;;;;;;2.47;1.70;;;;;;;;;;8195483;28;20462;-74
2021/09/26 09:48:42;;;;;;;2.85;1.90;;;;;;;;;;8211191;28;20350;-74
2021/09/26 09:52:53;;;;;;;3.50;1.60;;;;;;;;;;8196400;28;20042;-74
2021/09/26 09:57:12;;;;;;;4.78;2.25;;;;;;;;;;8196571;28;20377;-74
2021/09/26 10:01:26;;;;;;;6.20;1.85;;;;;;;;;;8194918;28;20477;-74
2021/09/26 10:05:35;;;;;;;2.25;1.58;;;;;;;;;;8196463;28;20350;-74
2021/09/26 10:09:41;;;;;;;4.45;2.10;;;;;;;;;;8194390;28;20342;-74
2021/09/26 10:13:47;;;;;;;5.68;1.83;;;;;;;;;;8195162;28;20483;-75
2021/09/26 10:17:52;;;;;;;2.53;1.80;;;;;;;;;;8195723;28;20453;-73
2021/09/26 10:22:01;;;;;;;1.65;1.50;;;;;;;;;;8193109;28;20042;-74
2021/09/26 10:26:07;;;;;;;2.50;1.80;;;;;;;;;;8192682;28;20385;-75
2021/09/26 10:30:11;;;;;;;2.05;1.40;;;;;;;;;;8192831;28;20457;-74
2021/09/26 10:34:17;;;;;;;4.38;1.60;;;;;;;;;;8236084;28;20052;-74
2021/09/26 10:38:21;;;;;;;3.35;1.73;;;;;;;;;;8237220;28;20448;-76
2021/09/26 10:42:26;;;;;;;8.77;2.30;;;;;;;;;;8230429;28;20360;-74
2021/09/26 10:46:30;;;;;;;7.63;2.70;;;;;;;;;;8242455;28;20456;-75
2021/09/26 10:50:40;;;;;;;6.38;2.70;;;;;;;;;;8242264;28;20417;-75
2021/09/26 10:54:44;;;;;;;11.10;4.78;;;;;;;;;;8229390;28;20468;-75
2021/09/26 10:58:57;;;;;;;11.02;5.88;;;;;;;;;;8232799;28;20496;-75
2021/09/26 11:03:20;;;;;;;16.00;7.80;;;;;;;;;;8239539;28;20437;-75
2021/09/26 11:07:28;;;;;;;9.27;4.15;;;;;;;;;;8267262;28;20476;-75
2021/09/26 11:11:44;;;;;;;9.05;4.55;;;;;;;;;;8258663;28;20464;-74
2021/09/26 11:16:04;;;;;;;6.80;3.70;;;;;;;;;;8259509;28;20528;-74
2021/09/26 11:20:12;;;;;;;3.78;1.88;;;;;;;;;;8250116;28;20506;-73
2021/09/26 11:24:23;;;;;;;3.13;1.95;;;;;;;;;;8238972;28;20484;-74
2021/09/26 11:28:34;;;;;;;5.50;3.05;;;;;;;;;;8239047;28;20457;-74
2021/09/26 11:32:38;;;;;;;10.68;4.03;;;;;;;;;;8258678;28;20067;-74
2021/09/26 11:36:53;;;;;;;2.50;1.90;;;;;;;;;;8255608;28;20368;-73
2021/09/26 11:41:04;;;;;;;8.05;2.22;;;;;;;;;;8235517;28;20460;-74
2021/09/26 11:45:15;;;;;;;4.40;1.77;;;;;;;;;;8240495;28;20436;-72
2021/09/26 11:49:20;;;;;;;3.63;2.10;;;;;;;;;;8240555;28;20460;-74
2021/09/26 11:53:27;;;;;;;3.13;2.20;;;;;;;;;;8255126;28;20487;-73
2021/09/26 11:57:31;;;;;;;4.70;2.08;;;;;;;;;;8255959;28;20371;-74
2021/09/26 12:01:46;;;;;;;5.75;3.15;;;;;;;;;;8249610;28;20073;-74
2021/09/26 12:05:54;;;;;;;4.68;2.30;;;;;;;;;;8235310;28;20408;-74
2021/09/26 12:10:00;;;;;;;4.15;2.05;;;;;;;;;;8227503;28;20364;-74
2021/09/26 12:14:06;;;;;;;5.53;2.00;;;;;;;;;;8224611;28;20049;-74
2021/09/26 12:18:22;;;;;;;4.72;2.28;;;;;;;;;;8222571;28;20460;-74
2021/09/26 12:22:29;;;;;;;4.13;2.10;;;;;;;;;;8236661;28;20637;-73
2021/09/26 12:26:41;;;;;;;3.10;1.80;;;;;;;;;;8254419;28;20385;-74
2021/09/26 12:30:51;;;;;;;2.67;1.80;;;;;;;;;;8235865;28;20361;-74
2021/09/26 12:35:00;;;;;;;3.75;2.35;;;;;;;;;;8244566;28;20053;-74
2021/09/26 12:39:11;;;;;;;3.50;2.10;;;;;;;;;;8221639;28;20372;-74
2021/09/26 12:43:24;;;;;;;4.18;2.20;;;;;;;;;;8224234;28;20480;-74
2021/09/26 12:47:31;;;;;;;3.15;2.22;;;;;;;;;;8236163;28;20459;-73
2021/09/26 12:51:42;;;;;;;7.32;2.25;;;;;;;;;;8234006;28;20464;-74
2021/09/26 12:55:47;;;;;;;3.13;1.98;;;;;;;;;;8238753;28;20448;-74
2021/09/26 13:00:11;;;;;;;5.32;2.70;;;;;;;;;;8242669;28;20057;-75
2021/09/26 13:04:18;;;;;;;3.75;2.00;;;;;;;;;;8231710;28;20049;-75
2021/09/26 13:08:43;;;;;;;3.33;2.10;;;;;;;;;;8253792;28;20484;-74
2021/09/26 13:12:53;;;;;;;3.58;2.47;;;;;;;;;;8239506;28;20429;-74
2021/09/26 13:16:59;;;;;;;3.17;2.53;;;;;;;;;;8239385;28;20045;-74
2021/09/26 13:21:24;;;;;;;4.90;2.55;;;;;;;;;;8240897;28;20460;-74
2021/09/26 13:25:41;;;;;;;3.08;2.15;;;;;;;;;;8230896;28;20114;-74
2021/09/26 13:29:49;;;;;;;5.88;2.10;;;;;;;;;;8228950;28;20484;-74
2021/09/26 13:34:10;;;;;;;5.05;2.58;;;;;;;;;;8230760;28;20453;-74
2021/09/26 13:38:23;;;;;;;5.65;2.38;;;;;;;;;;8255097;28;20444;-74
2021/09/26 13:42:36;;;;;;;5.18;2.63;;;;;;;;;;8260583;28;20167;-74
2021/09/26 13:46:41;;;;;;;3.35;2.42;;;;;;;;;;8252292;28;20500;-73
2021/09/26 13:50:45;;;;;;;3.88;2.20;;;;;;;;;;8239873;28;20059;-74
2021/09/26 13:54:51;;;;;;;6.85;2.38;;;;;;;;;;8247051;28;20479;-75
2021/09/26 13:58:55;;;;;;;3.70;1.98;;;;;;;;;;8242007;28;20049;-74
2021/09/26 14:02:59;;;;;;;3.90;2.47;;;;;;;;;;8239133;28;20363;-74
2021/09/26 14:07:04;;;;;;;3.72;2.20;;;;;;;;;;8236366;28;20060;-74
2021/09/26 14:11:11;;;;;;;3.80;2.22;;;;;;;;;;8260850;28;20044;-74
2021/09/26 14:15:15;;;;;;;3.50;2.33;;;;;;;;;;8262872;28;20453;-74
2021/09/26 14:19:21;;;;;;;4.03;2.70;;;;;;;;;;8257655;28;20346;-74
2021/09/26 14:23:26;;;;;;;3.67;2.60;;;;;;;;;;8259065;28;20456;-74
2021/09/26 14:27:31;;;;;;;4.55;2.80;;;;;;;;;;8260809;28;20476;-74
2021/09/26 14:31:38;;;;;;;5.53;2.75;;;;;;;;;;8257143;28;20130;-74
2021/09/26 14:35:44;;;;;;;5.30;2.55;;;;;;;;;;8258020;28;20045;-74
2021/09/26 14:39:49;;;;;;;4.15;2.67;;;;;;;;;;8257430;28;20480;-74
2021/09/26 14:43:56;;;;;;;5.45;2.97;;;;;;;;;;8259568;28;20041;-74
2021/09/26 14:48:01;;;;;;;4.25;2.97;;;;;;;;;;8261013;28;20471;-74
2021/09/26 14:52:07;;;;;;;5.43;3.00;;;;;;;;;;8246457;28;20356;-74
2021/09/26 14:56:11;;;;;;;4.70;3.05;;;;;;;;;;8228188;28;20444;-73
2021/09/26 15:00:17;;;;;;;3.65;2.30;;;;;;;;;;8239516;28;20353;-74
2021/09/26 15:04:21;;;;;;;6.03;2.83;;;;;;;;;;8227279;28;20463;-75
2021/09/26 15:08:26;;;;;;;5.45;3.00;;;;;;;;;;8245895;28;20456;-74
2021/09/26 15:12:32;;;;;;;4.57;2.95;;;;;;;;;;8258854;28;20372;-75
2021/09/26 15:16:38;;;;;;;5.07;2.85;;;;;;;;;;8254460;28;20458;-74
2021/09/26 15:20:45;;;;;;;5.47;3.33;;;;;;;;;;8211159;28;20352;-74
2021/09/26 15:24:50;;;;;;;4.32;3.10;;;;;;;;;;8230976;28;20076;-74
2021/09/26 15:28:57;;;;;;;4.68;3.22;;;;;;;;;;8224870;28;20473;-74
2021/09/26 15:33:02;;;;;;;7.40;3.30;;;;;;;;;;8223893;28;20367;-74
2021/09/26 15:37:07;;;;;;;5.75;3.80;;;;;;;;;;8234229;28;20488;-74
2021/09/26 15:41:11;;;;;;;5.35;3.10;;;;;;;;;;8236421;28;20337;-74
2021/09/26 15:45:21;;;;;;;7.75;3.95;;;;;;;;;;8240717;28;20463;-74
2021/09/26 15:49:29;;;;;;;110.85;75.45;;;;;;;;;;8242113;28;20496;-74
2021/09/26 15:53:35;;;;;;;18.33;12.10;;;;;;;;;;8256591;28;20490;-74
2021/09/26 15:57:41;;;;;;;7.38;4.53;;;;;;;;;;8241580;28;20464;-74
2021/09/26 16:01:45;;;;;;;5.93;3.53;;;;;;;;;;8237186;28;20464;-73
2021/09/26 16:05:49;;;;;;;7.05;4.90;;;;;;;;;;8255040;28;20380;-73
2021/09/26 16:09:54;;;;;;;9.20;6.28;;;;;;;;;;8255825;28;20041;-73
2021/09/26 16:13:58;;;;;;;15.25;6.32;;;;;;;;;;8259723;28;20452;-73
2021/09/26 16:18:07;;;;;;;8.18;4.63;;;;;;;;;;8259944;28;20040;-74
2021/09/26 16:22:11;;;;;;;7.35;4.07;;;;;;;;;;8257269;28;20498;-73
2021/09/26 16:26:16;;;;;;;8.82;4.90;;;;;;;;;;8257462;28;20429;-74
2021/09/26 16:30:20;;;;;;;10.00;5.82;;;;;;;;;;8256269;28;20356;-73
2021/09/26 16:34:25;;;;;;;14.60;7.88;;;;;;;;;;8239245;28;20349;-74
2021/09/26 16:38:30;;;;;;;18.25;8.82;;;;;;;;;;8257662;28;20495;-74
2021/09/26 16:42:34;;;;;;;22.10;16.70;;;;;;;;;;8257217;28;20479;-73
2021/09/26 16:46:39;;;;;;;12.77;8.45;;;;;;;;;;8239310;28;20058;-73
2021/09/26 16:50:54;;;;;;;25.35;15.00;;;;;;;;;;8231397;28;20376;-73
2021/09/26 16:54:58;;;;;;;30.92;19.23;;;;;;;;;;8227784;28;20490;-74
2021/09/26 16:59:04;;;;;;;19.40;12.60;;;;;;;;;;8230665;28;20046;-73
2021/09/26 17:03:09;;;;;;;15.40;8.10;;;;;;;;;;8244673;28;20453;-76
2021/09/26 17:07:17;;;;;;;24.30;12.95;;;;;;;;;;8228102;28;20485;-73
2021/09/26 17:11:24;;;;;;;22.87;10.93;;;;;;;;;;8243822;28;20322;-73
2021/09/26 17:15:33;;;;;;;18.35;10.55;;;;;;;;;;8244928;28;20464;-73
2021/09/26 17:19:39;;;;;;;12.45;7.60;;;;;;;;;;8227990;28;20377;-73
2021/09/26 17:23:45;;;;;;;11.88;6.50;;;;;;;;;;8244452;28;20518;-73
2021/09/26 17:27:50;;;;;;;11.25;5.88;;;;;;;;;;8229308;28;20380;-73
2021/09/26 17:31:57;;;;;;;16.48;8.85;;;;;;;;;;8229460;28;20464;-73
2021/09/26 17:36:06;;;;;;;11.55;6.72;;;;;;;;;;8243642;28;20407;-73
2021/09/26 17:40:14;;;;;;;18.67;6.25;;;;;;;;;;8227569;28;20376;-75
2021/09/26 17:44:19;;;;;;;13.55;5.95;;;;;;;;;;8228746;28;20053;-73
2021/09/26 17:48:27;;;;;;;18.20;8.88;;;;;;;;;;8229463;28;20328;-73
2021/09/26 17:52:32;;;;;;;24.83;11.10;;;;;;;;;;8227861;28;20476;-72
2021/09/26 17:56:41;;;;;;;23.98;9.38;;;;;;;;;;8228573;28;20091;-73
2021/09/26 18:00:52;;;;;;;47.88;20.13;;;;;;;;;;8226671;28;20068;-73
2021/09/26 18:04:57;;;;;;;42.63;18.65;;;;;;;;;;8228672;28;20380;-73
2021/09/26 18:09:05;;;;;;;53.25;20.73;;;;;;;;;;8227190;28;20053;-73
2021/09/26 18:13:16;;;;;;;83.82;28.80;;;;;;;;;;8227052;28;20349;-73
2021/09/26 18:17:23;;;;;;;41.60;15.68;;;;;;;;;;8227432;28;20384;-73
2021/09/26 18:21:32;;;;;;;36.13;13.80;;;;;;;;;;8230509;28;20463;-73
2021/09/26 18:25:41;;;;;;;35.13;14.52;;;;;;;;;;8228499;28;20350;-73
2021/09/26 18:29:47;;;;;;;20.92;10.70;;;;;;;;;;8228609;28;20567;-72
2021/09/26 18:33:53;;;;;;;23.83;10.90;;;;;;;;;;8227721;28;20609;-73
2021/09/26 18:37:59;;;;;;;35.38;12.68;;;;;;;;;;8227604;28;20480;-72
2021/09/26 18:42:04;;;;;;;35.03;13.75;;;;;;;;;;8229101;28;20305;-72
2021/09/26 18:46:11;;;;;;;35.75;14.32;;;;;;;;;;8225986;28;20099;-73
2021/09/26 18:50:20;;;;;;;31.85;14.43;;;;;;;;;;8225784;28;20080;-73
2021/09/26 18:54:25;;;;;;;14.93;8.88;;;;;;;;;;8226147;28;20365;-72
2021/09/26 18:58:33;;;;;;;19.27;10.52;;;;;;;;;;8227973;28;20368;-73
2021/09/26 19:02:38;;;;;;;24.27;11.20;;;;;;;;;;8242536;28;20503;-73
2021/09/26 19:06:44;;;;;;;23.55;11.35;;;;;;;;;;8227017;28;20479;-72
2021/09/26 19:10:52;;;;;;;27.23;13.63;;;;;;;;;;8226222;28;20373;-72
2021/09/26 19:14:57;;;;;;;17.27;8.98;;;;;;;;;;8240745;28;20080;-72
2021/09/26 19:19:03;;;;;;;20.90;11.15;;;;;;;;;;8228234;28;20388;-74
2021/09/26 19:23:10;;;;;;;19.45;11.55;;;;;;;;;;8240090;28;20473;-72
2021/09/26 19:27:16;;;;;;;15.13;8.55;;;;;;;;;;8227326;28;20491;-73
2021/09/26 19:31:30;;;;;;;15.43;9.35;;;;;;;;;;8225836;28;20456;-72
2021/09/26 19:35:36;;;;;;;15.70;8.75;;;;;;;;;;8224618;28;20468;-72
2021/09/26 19:39:42;;;;;;;15.40;8.93;;;;;;;;;;8226531;28;20452;-72
2021/09/26 19:43:50;;;;;;;17.67;9.05;;;;;;;;;;8226608;28;20038;-72
2021/09/26 19:47:57;;;;;;;12.38;7.88;;;;;;;;;;8225551;28;20408;-72
2021/09/26 19:52:03;;;;;;;11.98;8.55;;;;;;;;;;8226351;28;20453;-72
2021/09/26 19:56:09;;;;;;;29.88;13.80;;;;;;;;;;8225963;28;20472;-72
2021/09/26 20:00:18;;;;;;;15.57;9.90;;;;;;;;;;8224825;28;20079;-72
2021/09/26 20:04:24;;;;;;;15.38;9.10;;;;;;;;;;8213937;28;20452;-72
2021/09/26 20:08:29;;;;;;;20.50;10.30;;;;;;;;;;8224425;28;20045;-71
2021/09/26 20:12:34;;;;;;;15.68;9.43;;;;;;;;;;8224336;28;20494;-73
2021/09/26 20:16:42;;;;;;;17.35;9.82;;;;;;;;;;8225219;28;20479;-71
2021/09/26 20:20:52;;;;;;;15.83;9.93;;;;;;;;;;8225605;28;20360;-72
2021/09/26 20:25:00;;;;;;;15.15;9.30;;;;;;;;;;8223198;28;20449;-71
2021/09/26 20:29:05;;;;;;;15.63;9.52;;;;;;;;;;8240177;28;20413;-72
2021/09/26 20:33:12;;;;;;;16.30;9.98;;;;;;;;;;8228222;28;20531;-72
2021/09/26 20:37:18;;;;;;;22.48;10.68;;;;;;;;;;8245868;28;20653;-72
2021/09/26 20:41:26;;;;;;;14.88;10.15;;;;;;;;;;8230002;28;20483;-71
2021/09/26 20:45:36;;;;;;;33.40;17.55;;;;;;;;;;8231616;28;20460;-71
2021/09/26 20:49:41;;;;;;;44.72;19.23;;;;;;;;;;8213338;28;20050;-71
2021/09/26 20:53:46;;;;;;;20.15;10.63;;;;;;;;;;8228829;28;20445;-71
2021/09/26 20:57:52;;;;;;;17.67;10.55;;;;;;;;;;8231121;28;20376;-71
2021/09/26 21:01:57;;;;;;;19.05;10.38;;;;;;;;;;8229862;28;20380;-72
2021/09/26 21:06:05;;;;;;;19.00;10.30;;;;;;;;;;8230803;28;20037;-71
2021/09/26 21:10:14;;;;;;;20.05;10.10;;;;;;;;;;8244899;28;20360;-72
2021/09/26 21:14:20;;;;;;;18.13;10.93;;;;;;;;;;8228826;28;20503;-71
2021/09/26 21:18:25;;;;;;;15.02;10.10;;;;;;;;;;8233134;28;20487;-72
2021/09/26 21:22:30;;;;;;;16.52;10.68;;;;;;;;;;8228873;28;20491;-73
2021/09/26 21:26:35;;;;;;;20.48;11.18;;;;;;;;;;8230384;28;20380;-72
2021/09/26 21:30:41;;;;;;;16.38;11.90;;;;;;;;;;8230044;28;20498;-71
2021/09/26 21:34:46;;;;;;;18.15;11.13;;;;;;;;;;8228611;28;20333;-72
2021/09/26 21:38:51;;;;;;;17.45;11.65;;;;;;;;;;8230089;28;20481;-72
2021/09/26 21:42:57;;;;;;;19.48;12.13;;;;;;;;;;8228662;28;20372;-72
2021/09/26 21:47:03;;;;;;;16.27;10.80;;;;;;;;;;8227211;28;20053;-72
2021/09/26 21:51:07;;;;;;;16.15;11.18;;;;;;;;;;8231658;28;20046;-72
2021/09/26 21:55:16;;;;;;;18.85;10.13;;;;;;;;;;8229331;28;20356;-72
2021/09/26 21:59:21;;;;;;;19.27;10.55;;;;;;;;;;8228086;28;20380;-72
2021/09/26 22:03:36;;;;;;;14.63;9.88;;;;;;;;;;8244667;28;20334;-72
2021/09/26 22:07:41;;;;;;;15.95;10.40;;;;;;;;;;8227471;28;20384;-72
2021/09/26 22:11:47;;;;;;;19.58;10.95;;;;;;;;;;8226979;28;20380;-72
2021/09/26 22:15:53;;;;;;;20.08;11.77;;;;;;;;;;8244076;28;20059;-72
2021/09/26 22:19:58;;;;;;;16.30;10.85;;;;;;;;;;8243629;28;20461;-72
2021/09/26 22:24:15;;;;;;;17.27;10.75;;;;;;;;;;8228286;28;20492;-72
2021/09/26 22:28:25;;;;;;;18.63;10.93;;;;;;;;;;8228295;28;20348;-71
2021/09/26 22:32:31;;;;;;;20.63;11.45;;;;;;;;;;8226824;28;20049;-71
2021/09/26 22:36:37;;;;;;;17.42;10.23;;;;;;;;;;8242304;28;20368;-71
2021/09/26 22:40:43;;;;;;;18.63;11.52;;;;;;;;;;8228296;28;20444;-72
2021/09/26 22:44:48;;;;;;;17.85;10.93;;;;;;;;;;8241870;28;20041;-72
2021/09/26 22:48:53;;;;;;;18.52;11.07;;;;;;;;;;8243029;28;20345;-73
2021/09/26 22:52:58;;;;;;;18.50;11.60;;;;;;;;;;8226798;28;20498;-72
2021/09/26 22:57:04;;;;;;;20.77;12.15;;;;;;;;;;8227186;28;20457;-71
2021/09/26 23:01:22;;;;;;;16.30;10.93;;;;;;;;;;8241204;28;20471;-72
2021/09/26 23:05:28;;;;;;;20.92;11.40;;;;;;;;;;8225827;28;20465;-72
2021/09/26 23:09:34;;;;;;;18.67;10.85;;;;;;;;;;8209179;28;20464;-71
2021/09/26 23:13:39;;;;;;;19.77;11.10;;;;;;;;;;8227433;28;20469;-72
2021/09/26 23:17:45;;;;;;;20.00;11.85;;;;;;;;;;8226942;28;20048;-71
2021/09/26 23:21:50;;;;;;;20.75;12.77;;;;;;;;;;8225953;28;20480;-72
2021/09/26 23:25:56;;;;;;;17.38;11.57;;;;;;;;;;8240703;28;20361;-72
2021/09/26 23:30:02;;;;;;;21.00;12.55;;;;;;;;;;8240395;28;20453;-72
2021/09/26 23:34:07;;;;;;;19.75;11.05;;;;;;;;;;8226092;28;20518;-72
2021/09/26 23:38:13;;;;;;;25.38;12.07;;;;;;;;;;8239898;28;20484;-72
2021/09/26 23:42:18;;;;;;;20.85;11.43;;;;;;;;;;8239883;28;20481;-72
2021/09/26 23:46:29;;;;;;;18.98;11.15;;;;;;;;;;8239291;28;20465;-72
2021/09/26 23:50:36;;;;;;;18.58;10.82;;;;;;;;;;8225609;28;20456;-72
2021/09/26 23:54:44;;;;;;;15.77;10.82;;;;;;;;;;8225385;28;20602;-71
2021/09/26 23:58:49;;;;;;;18.48;11.23;;;;;;;;;;8239872;28;20488;-72
